sensor_id;sensor_type;location;lat;lon;timestamp;P1;durP1;ratioP1;P2;durP2;ratioP2
73661;SDS011;61956;52.540;13.382;2023-07-20T00:01:55;1.80;;;0.60;;
73661;SDS011;61956;52.540;13.382;2023-07-20T00:04:24;1.30;;;0.50;;
73661;SDS011;61956;52.540;13.382;2023-07-20T00:06:54;6.05;;;0.30;;
73661;SDS011;61956;52.540;13.382;2023-07-20T00:09:24;1.07;;;0.40;;
73661;SDS011;61956;52.540;13.382;2023-07-20T00:11:53;2.80;;;0.57;;
73661;SDS011;61956;52.540;13.382;2023-07-20T00:14:27;0.85;;;0.20;;
73661;SDS011;61956;52.540;13.382;2023-07-20T00:16:57;1.85;;;0.47;;
73661;SDS011;61956;52.540;13.382;2023-07-20T00:19:26;1.92;;;0.50;;
73661;SDS011;61956;52.540;13.382;2023-07-20T00:21:57;1.30;;;0.70;;
73661;SDS011;61956;52.540;13.382;2023-07-20T00:24:27;1.65;;;0.50;;
73661;SDS011;61956;52.540;13.382;2023-07-20T00:26:56;1.05;;;0.40;;
73661;SDS011;61956;52.540;13.382;2023-07-20T00:29:29;0.50;;;0.38;;
73661;SDS011;61956;52.540;13.382;2023-07-20T00:31:58;1.58;;;0.40;;
73661;SDS011;61956;52.540;13.382;2023-07-20T00:34:30;1.87;;;0.57;;
73661;SDS011;61956;52.540;13.382;2023-07-20T00:36:59;1.40;;;0.50;;
73661;SDS011;61956;52.540;13.382;2023-07-20T00:39:28;0.88;;;0.38;;
73661;SDS011;61956;52.540;13.382;2023-07-20T00:41:58;1.85;;;0.63;;
73661;SDS011;61956;52.540;13.382;2023-07-20T00:44:30;0.70;;;0.20;;
73661;SDS011;61956;52.540;13.382;2023-07-20T00:47:00;0.83;;;0.30;;
73661;SDS011;61956;52.540;13.382;2023-07-20T00:49:31;2.38;;;0.75;;
73661;SDS011;61956;52.540;13.382;2023-07-20T00:52:05;1.00;;;0.38;;
73661;SDS011;61956;52.540;13.382;2023-07-20T00:54:38;1.17;;;0.30;;
73661;SDS011;61956;52.540;13.382;2023-07-20T00:57:09;0.98;;;0.30;;
73661;SDS011;61956;52.540;13.382;2023-07-20T00:59:44;0.57;;;0.20;;
73661;SDS011;61956;52.540;13.382;2023-07-20T01:02:14;1.85;;;0.52;;
73661;SDS011;61956;52.540;13.382;2023-07-20T01:04:43;2.75;;;0.80;;
73661;SDS011;61956;52.540;13.382;2023-07-20T01:07:14;0.82;;;0.28;;
73661;SDS011;61956;52.540;13.382;2023-07-20T01:09:56;1.63;;;0.40;;
73661;SDS011;61956;52.540;13.382;2023-07-20T01:12:32;2.00;;;0.70;;
73661;SDS011;61956;52.540;13.382;2023-07-20T01:15:12;2.00;;;0.85;;
73661;SDS011;61956;52.540;13.382;2023-07-20T01:17:42;1.15;;;0.50;;
73661;SDS011;61956;52.540;13.382;2023-07-20T01:20:12;1.67;;;0.50;;
73661;SDS011;61956;52.540;13.382;2023-07-20T01:22:47;2.30;;;1.25;;
73661;SDS011;61956;52.540;13.382;2023-07-20T01:25:45;1.60;;;0.53;;
73661;SDS011;61956;52.540;13.382;2023-07-20T01:28:56;0.40;;;0.20;;
73661;SDS011;61956;52.540;13.382;2023-07-20T01:31:42;3.33;;;0.68;;
73661;SDS011;61956;52.540;13.382;2023-07-20T01:34:14;1.75;;;0.63;;
73661;SDS011;61956;52.540;13.382;2023-07-20T01:36:47;1.08;;;0.30;;
73661;SDS011;61956;52.540;13.382;2023-07-20T01:39:21;4.57;;;1.00;;
73661;SDS011;61956;52.540;13.382;2023-07-20T01:41:51;0.82;;;0.30;;
73661;SDS011;61956;52.540;13.382;2023-07-20T01:44:21;1.83;;;0.68;;
73661;SDS011;61956;52.540;13.382;2023-07-20T01:46:54;1.33;;;0.52;;
73661;SDS011;61956;52.540;13.382;2023-07-20T01:49:24;1.50;;;0.40;;
73661;SDS011;61956;52.540;13.382;2023-07-20T01:51:53;0.97;;;0.50;;
73661;SDS011;61956;52.540;13.382;2023-07-20T01:54:22;1.80;;;0.57;;
73661;SDS011;61956;52.540;13.382;2023-07-20T01:56:51;0.88;;;0.28;;
73661;SDS011;61956;52.540;13.382;2023-07-20T01:59:20;1.45;;;0.50;;
73661;SDS011;61956;52.540;13.382;2023-07-20T02:01:50;2.80;;;1.05;;
73661;SDS011;61956;52.540;13.382;2023-07-20T02:04:22;1.83;;;0.70;;
73661;SDS011;61956;52.540;13.382;2023-07-20T02:06:51;1.27;;;0.70;;
73661;SDS011;61956;52.540;13.382;2023-07-20T02:09:20;2.88;;;0.50;;
73661;SDS011;61956;52.540;13.382;2023-07-20T02:11:49;1.80;;;0.55;;
73661;SDS011;61956;52.540;13.382;2023-07-20T02:14:19;1.55;;;0.68;;
73661;SDS011;61956;52.540;13.382;2023-07-20T02:16:49;1.80;;;0.67;;
73661;SDS011;61956;52.540;13.382;2023-07-20T02:19:29;1.63;;;0.55;;
73661;SDS011;61956;52.540;13.382;2023-07-20T02:21:58;1.63;;;0.68;;
73661;SDS011;61956;52.540;13.382;2023-07-20T02:24:27;1.45;;;0.43;;
73661;SDS011;61956;52.540;13.382;2023-07-20T02:26:57;1.80;;;0.60;;
73661;SDS011;61956;52.540;13.382;2023-07-20T02:29:26;2.17;;;0.80;;
73661;SDS011;61956;52.540;13.382;2023-07-20T02:31:55;1.73;;;0.50;;
73661;SDS011;61956;52.540;13.382;2023-07-20T02:34:24;2.05;;;0.70;;
73661;SDS011;61956;52.540;13.382;2023-07-20T02:36:56;2.67;;;0.80;;
73661;SDS011;61956;52.540;13.382;2023-07-20T02:39:26;2.13;;;1.05;;
73661;SDS011;61956;52.540;13.382;2023-07-20T02:41:56;3.40;;;0.83;;
73661;SDS011;61956;52.540;13.382;2023-07-20T02:44:25;8.40;;;1.20;;
73661;SDS011;61956;52.540;13.382;2023-07-20T02:46:55;3.60;;;1.20;;
73661;SDS011;61956;52.540;13.382;2023-07-20T02:49:24;4.65;;;1.15;;
73661;SDS011;61956;52.540;13.382;2023-07-20T02:51:56;2.20;;;0.85;;
73661;SDS011;61956;52.540;13.382;2023-07-20T02:54:26;2.47;;;1.00;;
73661;SDS011;61956;52.540;13.382;2023-07-20T02:56:55;3.15;;;1.58;;
73661;SDS011;61956;52.540;13.382;2023-07-20T02:59:27;2.05;;;1.02;;
73661;SDS011;61956;52.540;13.382;2023-07-20T03:01:57;2.78;;;1.40;;
73661;SDS011;61956;52.540;13.382;2023-07-20T03:04:26;3.25;;;1.15;;
73661;SDS011;61956;52.540;13.382;2023-07-20T03:06:58;3.43;;;1.17;;
73661;SDS011;61956;52.540;13.382;2023-07-20T03:09:28;2.67;;;1.40;;
73661;SDS011;61956;52.540;13.382;2023-07-20T03:11:58;4.30;;;1.98;;
73661;SDS011;61956;52.540;13.382;2023-07-20T03:14:28;3.05;;;0.75;;
73661;SDS011;61956;52.540;13.382;2023-07-20T03:16:58;2.47;;;1.05;;
73661;SDS011;61956;52.540;13.382;2023-07-20T03:19:27;2.47;;;1.23;;
73661;SDS011;61956;52.540;13.382;2023-07-20T03:21:58;4.70;;;1.38;;
73661;SDS011;61956;52.540;13.382;2023-07-20T03:24:28;3.28;;;1.35;;
73661;SDS011;61956;52.540;13.382;2023-07-20T03:26:57;2.47;;;0.90;;
73661;SDS011;61956;52.540;13.382;2023-07-20T03:29:26;2.38;;;0.95;;
73661;SDS011;61956;52.540;13.382;2023-07-20T03:31:57;2.60;;;1.27;;
73661;SDS011;61956;52.540;13.382;2023-07-20T03:34:26;3.47;;;1.27;;
73661;SDS011;61956;52.540;13.382;2023-07-20T03:37:00;2.50;;;1.20;;
73661;SDS011;61956;52.540;13.382;2023-07-20T03:39:30;4.85;;;1.15;;
73661;SDS011;61956;52.540;13.382;2023-07-20T03:41:59;2.60;;;1.10;;
73661;SDS011;61956;52.540;13.382;2023-07-20T03:44:28;2.93;;;1.30;;
73661;SDS011;61956;52.540;13.382;2023-07-20T03:46:57;2.80;;;1.05;;
73661;SDS011;61956;52.540;13.382;2023-07-20T03:49:27;3.47;;;1.30;;
73661;SDS011;61956;52.540;13.382;2023-07-20T03:51:56;3.55;;;1.52;;
73661;SDS011;61956;52.540;13.382;2023-07-20T03:54:28;2.50;;;1.15;;
73661;SDS011;61956;52.540;13.382;2023-07-20T03:56:59;3.17;;;1.03;;
73661;SDS011;61956;52.540;13.382;2023-07-20T03:59:28;1.90;;;0.82;;
73661;SDS011;61956;52.540;13.382;2023-07-20T04:01:59;3.22;;;1.30;;
73661;SDS011;61956;52.540;13.382;2023-07-20T04:04:28;0.98;;;0.38;;
73661;SDS011;61956;52.540;13.382;2023-07-20T04:06:57;3.03;;;1.27;;
73661;SDS011;61956;52.540;13.382;2023-07-20T04:09:31;2.97;;;1.60;;
73661;SDS011;61956;52.540;13.382;2023-07-20T04:12:00;9.10;;;1.00;;
73661;SDS011;61956;52.540;13.382;2023-07-20T04:14:30;2.35;;;1.27;;
73661;SDS011;61956;52.540;13.382;2023-07-20T04:16:59;2.53;;;1.17;;
73661;SDS011;61956;52.540;13.382;2023-07-20T04:19:29;1.73;;;0.75;;
73661;SDS011;61956;52.540;13.382;2023-07-20T04:21:58;3.00;;;1.43;;
73661;SDS011;61956;52.540;13.382;2023-07-20T04:24:31;2.55;;;0.82;;
73661;SDS011;61956;52.540;13.382;2023-07-20T04:27:00;5.00;;;1.73;;
73661;SDS011;61956;52.540;13.382;2023-07-20T04:29:30;3.97;;;1.15;;
73661;SDS011;61956;52.540;13.382;2023-07-20T04:31:59;2.90;;;1.38;;
73661;SDS011;61956;52.540;13.382;2023-07-20T04:34:29;3.40;;;1.13;;
73661;SDS011;61956;52.540;13.382;2023-07-20T04:36:58;3.03;;;1.52;;
73661;SDS011;61956;52.540;13.382;2023-07-20T04:39:27;2.88;;;0.90;;
73661;SDS011;61956;52.540;13.382;2023-07-20T04:42:00;4.43;;;1.63;;
73661;SDS011;61956;52.540;13.382;2023-07-20T04:44:29;3.28;;;1.25;;
73661;SDS011;61956;52.540;13.382;2023-07-20T04:46:58;3.53;;;1.10;;
73661;SDS011;61956;52.540;13.382;2023-07-20T04:49:29;4.22;;;1.52;;
73661;SDS011;61956;52.540;13.382;2023-07-20T04:51:58;4.20;;;1.15;;
73661;SDS011;61956;52.540;13.382;2023-07-20T04:54:28;3.10;;;1.05;;
73661;SDS011;61956;52.540;13.382;2023-07-20T04:57:00;2.38;;;0.95;;
73661;SDS011;61956;52.540;13.382;2023-07-20T04:59:29;2.97;;;0.90;;
73661;SDS011;61956;52.540;13.382;2023-07-20T05:02:01;3.92;;;1.63;;
73661;SDS011;61956;52.540;13.382;2023-07-20T05:04:30;2.08;;;0.98;;
73661;SDS011;61956;52.540;13.382;2023-07-20T05:07:00;3.72;;;1.27;;
73661;SDS011;61956;52.540;13.382;2023-07-20T05:09:29;1.40;;;0.57;;
73661;SDS011;61956;52.540;13.382;2023-07-20T05:12:01;3.37;;;1.13;;
73661;SDS011;61956;52.540;13.382;2023-07-20T05:14:31;1.33;;;0.40;;
73661;SDS011;61956;52.540;13.382;2023-07-20T05:17:00;3.03;;;0.80;;
73661;SDS011;61956;52.540;13.382;2023-07-20T05:19:30;1.02;;;0.50;;
73661;SDS011;61956;52.540;13.382;2023-07-20T05:21:59;2.53;;;0.93;;
73661;SDS011;61956;52.540;13.382;2023-07-20T05:24:29;1.77;;;0.77;;
73661;SDS011;61956;52.540;13.382;2023-07-20T05:27:01;0.73;;;0.30;;
73661;SDS011;61956;52.540;13.382;2023-07-20T05:29:31;2.72;;;1.05;;
73661;SDS011;61956;52.540;13.382;2023-07-20T05:32:00;3.50;;;1.45;;
73661;SDS011;61956;52.540;13.382;2023-07-20T05:34:29;3.33;;;1.38;;
73661;SDS011;61956;52.540;13.382;2023-07-20T05:36:58;10.83;;;1.33;;
73661;SDS011;61956;52.540;13.382;2023-07-20T05:39:33;6.68;;;0.88;;
73661;SDS011;61956;52.540;13.382;2023-07-20T05:42:05;7.07;;;0.50;;
73661;SDS011;61956;52.540;13.382;2023-07-20T05:44:35;2.35;;;1.27;;
73661;SDS011;61956;52.540;13.382;2023-07-20T05:47:04;2.33;;;0.93;;
73661;SDS011;61956;52.540;13.382;2023-07-20T05:49:34;2.70;;;1.03;;
73661;SDS011;61956;52.540;13.382;2023-07-20T05:52:03;2.17;;;0.75;;
73661;SDS011;61956;52.540;13.382;2023-07-20T05:54:33;2.05;;;0.68;;
73661;SDS011;61956;52.540;13.382;2023-07-20T05:57:05;2.80;;;0.90;;
73661;SDS011;61956;52.540;13.382;2023-07-20T05:59:35;1.60;;;0.57;;
73661;SDS011;61956;52.540;13.382;2023-07-20T06:02:06;3.03;;;1.40;;
73661;SDS011;61956;52.540;13.382;2023-07-20T06:04:35;2.40;;;1.00;;
73661;SDS011;61956;52.540;13.382;2023-07-20T06:07:04;3.67;;;0.93;;
73661;SDS011;61956;52.540;13.382;2023-07-20T06:09:35;2.80;;;1.10;;
73661;SDS011;61956;52.540;13.382;2023-07-20T06:12:07;3.72;;;1.42;;
73661;SDS011;61956;52.540;13.382;2023-07-20T06:14:37;4.53;;;1.60;;
73661;SDS011;61956;52.540;13.382;2023-07-20T06:17:06;2.15;;;0.93;;
73661;SDS011;61956;52.540;13.382;2023-07-20T06:19:35;2.65;;;1.17;;
73661;SDS011;61956;52.540;13.382;2023-07-20T06:22:05;2.08;;;0.93;;
73661;SDS011;61956;52.540;13.382;2023-07-20T06:24:34;2.72;;;1.20;;
73661;SDS011;61956;52.540;13.382;2023-07-20T06:27:04;2.23;;;1.23;;
73661;SDS011;61956;52.540;13.382;2023-07-20T06:29:37;1.90;;;0.77;;
73661;SDS011;61956;52.540;13.382;2023-07-20T06:32:07;2.35;;;0.95;;
73661;SDS011;61956;52.540;13.382;2023-07-20T06:34:36;3.08;;;0.80;;
73661;SDS011;61956;52.540;13.382;2023-07-20T06:37:05;2.22;;;0.77;;
73661;SDS011;61956;52.540;13.382;2023-07-20T06:39:35;2.23;;;1.13;;
73661;SDS011;61956;52.540;13.382;2023-07-20T06:42:07;1.38;;;0.40;;
73661;SDS011;61956;52.540;13.382;2023-07-20T06:44:36;2.72;;;0.90;;
73661;SDS011;61956;52.540;13.382;2023-07-20T06:47:05;1.95;;;1.02;;
73661;SDS011;61956;52.540;13.382;2023-07-20T06:49:35;4.55;;;0.70;;
73661;SDS011;61956;52.540;13.382;2023-07-20T06:52:04;1.67;;;0.70;;
73661;SDS011;61956;52.540;13.382;2023-07-20T06:54:34;1.85;;;0.32;;
73661;SDS011;61956;52.540;13.382;2023-07-20T06:57:04;1.15;;;0.43;;
73661;SDS011;61956;52.540;13.382;2023-07-20T06:59:36;1.38;;;0.63;;
73661;SDS011;61956;52.540;13.382;2023-07-20T07:02:05;1.48;;;0.43;;
73661;SDS011;61956;52.540;13.382;2023-07-20T07:04:35;2.03;;;0.90;;
73661;SDS011;61956;52.540;13.382;2023-07-20T07:07:04;1.38;;;0.85;;
73661;SDS011;61956;52.540;13.382;2023-07-20T07:09:34;1.25;;;0.63;;
73661;SDS011;61956;52.540;13.382;2023-07-20T07:12:03;0.93;;;0.43;;
73661;SDS011;61956;52.540;13.382;2023-07-20T07:14:36;1.38;;;0.40;;
73661;SDS011;61956;52.540;13.382;2023-07-20T07:17:06;1.13;;;0.60;;
73661;SDS011;61956;52.540;13.382;2023-07-20T07:19:35;1.13;;;0.40;;
73661;SDS011;61956;52.540;13.382;2023-07-20T07:22:04;1.35;;;0.45;;
73661;SDS011;61956;52.540;13.382;2023-07-20T07:24:33;0.80;;;0.28;;
73661;SDS011;61956;52.540;13.382;2023-07-20T07:27:03;1.85;;;0.88;;
73661;SDS011;61956;52.540;13.382;2023-07-20T07:29:36;0.83;;;0.40;;
73661;SDS011;61956;52.540;13.382;2023-07-20T07:32:09;0.50;;;0.15;;
73661;SDS011;61956;52.540;13.382;2023-07-20T07:34:39;0.50;;;0.20;;
73661;SDS011;61956;52.540;13.382;2023-07-20T07:37:08;1.05;;;0.32;;
73661;SDS011;61956;52.540;13.382;2023-07-20T07:39:37;0.65;;;0.20;;
73661;SDS011;61956;52.540;13.382;2023-07-20T07:42:09;0.40;;;0.20;;
73661;SDS011;61956;52.540;13.382;2023-07-20T07:44:38;0.98;;;0.30;;
73661;SDS011;61956;52.540;13.382;2023-07-20T07:47:07;0.90;;;0.32;;
73661;SDS011;61956;52.540;13.382;2023-07-20T07:49:37;0.88;;;0.30;;
73661;SDS011;61956;52.540;13.382;2023-07-20T07:52:06;0.85;;;0.20;;
73661;SDS011;61956;52.540;13.382;2023-07-20T07:54:36;0.40;;;0.17;;
73661;SDS011;61956;52.540;13.382;2023-07-20T07:57:05;0.77;;;0.30;;
73661;SDS011;61956;52.540;13.382;2023-07-20T07:59:39;2.90;;;0.32;;
73661;SDS011;61956;52.540;13.382;2023-07-20T08:02:08;0.43;;;0.20;;
73661;SDS011;61956;52.540;13.382;2023-07-20T08:04:37;1.27;;;0.40;;
73661;SDS011;61956;52.540;13.382;2023-07-20T08:07:07;0.90;;;0.30;;
73661;SDS011;61956;52.540;13.382;2023-07-20T08:09:36;0.85;;;0.30;;
73661;SDS011;61956;52.540;13.382;2023-07-20T08:12:05;0.80;;;0.20;;
73661;SDS011;61956;52.540;13.382;2023-07-20T08:14:38;1.00;;;0.32;;
73661;SDS011;61956;52.540;13.382;2023-07-20T08:17:08;0.50;;;0.17;;
73661;SDS011;61956;52.540;13.382;2023-07-20T08:19:37;0.40;;;0.17;;
73661;SDS011;61956;52.540;13.382;2023-07-20T08:22:07;1.15;;;0.43;;
73661;SDS011;61956;52.540;13.382;2023-07-20T08:24:38;0.43;;;0.20;;
73661;SDS011;61956;52.540;13.382;2023-07-20T08:27:11;0.35;;;0.15;;
73661;SDS011;61956;52.540;13.382;2023-07-20T08:29:40;0.55;;;0.22;;
73661;SDS011;61956;52.540;13.382;2023-07-20T08:32:09;0.53;;;0.23;;
73661;SDS011;61956;52.540;13.382;2023-07-20T08:34:39;0.00;;;0.00;;
73661;SDS011;61956;52.540;13.382;2023-07-20T08:37:08;0.55;;;0.15;;
73661;SDS011;61956;52.540;13.382;2023-07-20T08:39:38;1.15;;;0.20;;
73661;SDS011;61956;52.540;13.382;2023-07-20T08:42:07;0.80;;;0.30;;
73661;SDS011;61956;52.540;13.382;2023-07-20T08:44:43;0.37;;;0.20;;
73661;SDS011;61956;52.540;13.382;2023-07-20T08:47:16;0.63;;;0.20;;
73661;SDS011;61956;52.540;13.382;2023-07-20T08:49:47;0.00;;;0.00;;
73661;SDS011;61956;52.540;13.382;2023-07-20T08:52:17;0.30;;;0.20;;
73661;SDS011;61956;52.540;13.382;2023-07-20T08:54:46;0.50;;;0.10;;
73661;SDS011;61956;52.540;13.382;2023-07-20T08:57:20;1.30;;;0.40;;
73661;SDS011;61956;52.540;13.382;2023-07-20T08:59:50;0.43;;;0.30;;
73661;SDS011;61956;52.540;13.382;2023-07-20T09:02:21;0.38;;;0.17;;
73661;SDS011;61956;52.540;13.382;2023-07-20T09:04:55;0.77;;;0.25;;
73661;SDS011;61956;52.540;13.382;2023-07-20T09:07:24;1.02;;;0.20;;
73661;SDS011;61956;52.540;13.382;2023-07-20T09:09:56;0.33;;;0.20;;
73661;SDS011;61956;52.540;13.382;2023-07-20T09:12:33;0.55;;;0.20;;
73661;SDS011;61956;52.540;13.382;2023-07-20T09:15:05;0.30;;;0.30;;
73661;SDS011;61956;52.540;13.382;2023-07-20T09:17:36;0.40;;;0.20;;
73661;SDS011;61956;52.540;13.382;2023-07-20T09:20:06;0.52;;;0.20;;
73661;SDS011;61956;52.540;13.382;2023-07-20T09:22:38;0.80;;;0.30;;
73661;SDS011;61956;52.540;13.382;2023-07-20T09:25:08;0.10;;;0.10;;
73661;SDS011;61956;52.540;13.382;2023-07-20T09:27:44;0.47;;;0.17;;
73661;SDS011;61956;52.540;13.382;2023-07-20T09:30:16;0.30;;;0.10;;
73661;SDS011;61956;52.540;13.382;2023-07-20T09:32:46;0.65;;;0.20;;
73661;SDS011;61956;52.540;13.382;2023-07-20T09:35:17;0.27;;;0.10;;
73661;SDS011;61956;52.540;13.382;2023-07-20T09:37:49;0.50;;;0.13;;
73661;SDS011;61956;52.540;13.382;2023-07-20T09:40:22;0.30;;;0.10;;
73661;SDS011;61956;52.540;13.382;2023-07-20T09:42:55;0.82;;;0.30;;
73661;SDS011;61956;52.540;13.382;2023-07-20T09:45:28;0.17;;;0.10;;
73661;SDS011;61956;52.540;13.382;2023-07-20T09:48:03;0.30;;;0.10;;
73661;SDS011;61956;52.540;13.382;2023-07-20T09:50:33;0.35;;;0.20;;
73661;SDS011;61956;52.540;13.382;2023-07-20T09:53:02;0.70;;;0.20;;
73661;SDS011;61956;52.540;13.382;2023-07-20T09:55:31;1.70;;;0.28;;
73661;SDS011;61956;52.540;13.382;2023-07-20T09:58:05;0.30;;;0.20;;
73661;SDS011;61956;52.540;13.382;2023-07-20T10:00:37;0.13;;;0.10;;
73661;SDS011;61956;52.540;13.382;2023-07-20T10:03:10;0.90;;;0.28;;
73661;SDS011;61956;52.540;13.382;2023-07-20T10:05:43;1.05;;;0.30;;
73661;SDS011;61956;52.540;13.382;2023-07-20T10:08:16;0.75;;;0.30;;
73661;SDS011;61956;52.540;13.382;2023-07-20T10:10:49;1.30;;;0.32;;
73661;SDS011;61956;52.540;13.382;2023-07-20T10:13:23;0.67;;;0.20;;
73661;SDS011;61956;52.540;13.382;2023-07-20T10:15:58;0.30;;;0.10;;
73661;SDS011;61956;52.540;13.382;2023-07-20T10:18:33;0.43;;;0.10;;
73661;SDS011;61956;52.540;13.382;2023-07-20T10:21:14;1.88;;;0.68;;
73661;SDS011;61956;52.540;13.382;2023-07-20T10:23:48;0.10;;;0.00;;
73661;SDS011;61956;52.540;13.382;2023-07-20T10:26:17;0.70;;;0.30;;
73661;SDS011;61956;52.540;13.382;2023-07-20T10:28:49;0.63;;;0.30;;
73661;SDS011;61956;52.540;13.382;2023-07-20T10:31:19;2.03;;;0.40;;
73661;SDS011;61956;52.540;13.382;2023-07-20T10:33:49;1.13;;;0.30;;
73661;SDS011;61956;52.540;13.382;2023-07-20T10:36:24;0.47;;;0.20;;
73661;SDS011;61956;52.540;13.382;2023-07-20T10:38:55;0.60;;;0.20;;
73661;SDS011;61956;52.540;13.382;2023-07-20T10:41:29;1.25;;;0.28;;
73661;SDS011;61956;52.540;13.382;2023-07-20T10:44:07;0.55;;;0.20;;
73661;SDS011;61956;52.540;13.382;2023-07-20T10:46:42;0.15;;;0.10;;
73661;SDS011;61956;52.540;13.382;2023-07-20T10:49:13;2.03;;;0.43;;
73661;SDS011;61956;52.540;13.382;2023-07-20T10:51:46;0.60;;;0.20;;
73661;SDS011;61956;52.540;13.382;2023-07-20T10:57:29;0.90;;;0.28;;
73661;SDS011;61956;52.540;13.382;2023-07-20T11:00:12;0.85;;;0.20;;
73661;SDS011;61956;52.540;13.382;2023-07-20T11:02:44;0.73;;;0.10;;
73661;SDS011;61956;52.540;13.382;2023-07-20T11:08:11;0.20;;;0.10;;
73661;SDS011;61956;52.540;13.382;2023-07-20T11:10:41;0.30;;;0.10;;
73661;SDS011;61956;52.540;13.382;2023-07-20T11:13:22;0.20;;;0.10;;
73661;SDS011;61956;52.540;13.382;2023-07-20T11:16:05;0.10;;;0.10;;
73661;SDS011;61956;52.540;13.382;2023-07-20T11:18:37;0.10;;;0.10;;
73661;SDS011;61956;52.540;13.382;2023-07-20T11:21:07;0.10;;;0.10;;
73661;SDS011;61956;52.540;13.382;2023-07-20T11:23:38;1.27;;;0.20;;
73661;SDS011;61956;52.540;13.382;2023-07-20T11:26:08;0.70;;;0.28;;
73661;SDS011;61956;52.540;13.382;2023-07-20T11:28:38;0.45;;;0.15;;
73661;SDS011;61956;52.540;13.382;2023-07-20T11:31:09;0.40;;;0.10;;
73661;SDS011;61956;52.540;13.382;2023-07-20T11:33:42;1.25;;;0.43;;
73661;SDS011;61956;52.540;13.382;2023-07-20T11:36:11;0.38;;;0.15;;
73661;SDS011;61956;52.540;13.382;2023-07-20T11:38:41;0.75;;;0.30;;
73661;SDS011;61956;52.540;13.382;2023-07-20T11:41:11;0.47;;;0.20;;
73661;SDS011;61956;52.540;13.382;2023-07-20T11:43:42;0.73;;;0.23;;
73661;SDS011;61956;52.540;13.382;2023-07-20T11:46:16;1.15;;;0.38;;
73661;SDS011;61956;52.540;13.382;2023-07-20T11:48:45;0.47;;;0.17;;
73661;SDS011;61956;52.540;13.382;2023-07-20T11:51:14;1.25;;;0.30;;
73661;SDS011;61956;52.540;13.382;2023-07-20T11:53:45;3.70;;;0.28;;
73661;SDS011;61956;52.540;13.382;2023-07-20T11:56:15;0.30;;;0.10;;
73661;SDS011;61956;52.540;13.382;2023-07-20T11:58:45;1.77;;;0.32;;
73661;SDS011;61956;52.540;13.382;2023-07-20T12:01:17;2.22;;;0.25;;
73661;SDS011;61956;52.540;13.382;2023-07-20T12:03:47;0.32;;;0.10;;
73661;SDS011;61956;52.540;13.382;2023-07-20T12:06:17;0.90;;;0.20;;
73661;SDS011;61956;52.540;13.382;2023-07-20T12:08:47;1.53;;;0.33;;
73661;SDS011;61956;52.540;13.382;2023-07-20T12:11:30;0.30;;;0.10;;
73661;SDS011;61956;52.540;13.382;2023-07-20T12:14:03;0.22;;;0.10;;
73661;SDS011;61956;52.540;13.382;2023-07-20T12:16:38;0.80;;;0.43;;
73661;SDS011;61956;52.540;13.382;2023-07-20T12:19:11;0.60;;;0.10;;
73661;SDS011;61956;52.540;13.382;2023-07-20T12:21:41;0.10;;;0.00;;
73661;SDS011;61956;52.540;13.382;2023-07-20T12:24:11;0.70;;;0.17;;
73661;SDS011;61956;52.540;13.382;2023-07-20T12:26:40;0.43;;;0.10;;
73661;SDS011;61956;52.540;13.382;2023-07-20T12:29:09;0.43;;;0.10;;
73661;SDS011;61956;52.540;13.382;2023-07-20T12:31:41;0.03;;;0.00;;
73661;SDS011;61956;52.540;13.382;2023-07-20T12:34:11;0.43;;;0.13;;
73661;SDS011;61956;52.540;13.382;2023-07-20T12:36:40;0.10;;;0.10;;
73661;SDS011;61956;52.540;13.382;2023-07-20T12:39:09;0.40;;;0.10;;
73661;SDS011;61956;52.540;13.382;2023-07-20T12:41:38;0.20;;;0.10;;
73661;SDS011;61956;52.540;13.382;2023-07-20T12:44:07;0.30;;;0.10;;
73661;SDS011;61956;52.540;13.382;2023-07-20T12:46:37;0.67;;;0.27;;
73661;SDS011;61956;52.540;13.382;2023-07-20T12:49:09;0.63;;;0.30;;
73661;SDS011;61956;52.540;13.382;2023-07-20T12:51:40;0.03;;;0.00;;
73661;SDS011;61956;52.540;13.382;2023-07-20T12:54:09;0.68;;;0.13;;
73661;SDS011;61956;52.540;13.382;2023-07-20T12:56:39;1.52;;;0.60;;
73661;SDS011;61956;52.540;13.382;2023-07-20T12:59:08;0.87;;;0.20;;
73661;SDS011;61956;52.540;13.382;2023-07-20T13:01:41;0.40;;;0.10;;
73661;SDS011;61956;52.540;13.382;2023-07-20T13:04:10;0.70;;;0.28;;
73661;SDS011;61956;52.540;13.382;2023-07-20T13:06:39;0.30;;;0.08;;
73661;SDS011;61956;52.540;13.382;2023-07-20T13:09:08;0.30;;;0.10;;
73661;SDS011;61956;52.540;13.382;2023-07-20T13:11:37;0.07;;;0.07;;
73661;SDS011;61956;52.540;13.382;2023-07-20T13:14:07;0.30;;;0.10;;
73661;SDS011;61956;52.540;13.382;2023-07-20T13:16:37;0.10;;;0.10;;
73661;SDS011;61956;52.540;13.382;2023-07-20T13:19:09;0.38;;;0.38;;
73661;SDS011;61956;52.540;13.382;2023-07-20T13:21:38;0.75;;;0.30;;
73661;SDS011;61956;52.540;13.382;2023-07-20T13:24:08;0.73;;;0.20;;
73661;SDS011;61956;52.540;13.382;2023-07-20T13:26:37;0.10;;;0.10;;
73661;SDS011;61956;52.540;13.382;2023-07-20T13:29:06;0.28;;;0.03;;
73661;SDS011;61956;52.540;13.382;2023-07-20T13:31:39;0.10;;;0.00;;
73661;SDS011;61956;52.540;13.382;2023-07-20T13:34:11;0.82;;;0.20;;
73661;SDS011;61956;52.540;13.382;2023-07-20T13:36:40;0.60;;;0.20;;
73661;SDS011;61956;52.540;13.382;2023-07-20T13:39:09;0.30;;;0.10;;
73661;SDS011;61956;52.540;13.382;2023-07-20T13:41:38;0.95;;;0.20;;
73661;SDS011;61956;52.540;13.382;2023-07-20T13:44:07;0.45;;;0.20;;
73661;SDS011;61956;52.540;13.382;2023-07-20T13:46:37;0.25;;;0.10;;
73661;SDS011;61956;52.540;13.382;2023-07-20T13:49:06;0.27;;;0.13;;
73661;SDS011;61956;52.540;13.382;2023-07-20T13:51:38;1.15;;;0.30;;
73661;SDS011;61956;52.540;13.382;2023-07-20T13:54:07;0.40;;;0.10;;
73661;SDS011;61956;52.540;13.382;2023-07-20T13:56:37;0.25;;;0.10;;
73661;SDS011;61956;52.540;13.382;2023-07-20T13:59:06;0.65;;;0.20;;
73661;SDS011;61956;52.540;13.382;2023-07-20T14:01:35;0.10;;;0.10;;
73661;SDS011;61956;52.540;13.382;2023-07-20T14:04:05;0.30;;;0.10;;
73661;SDS011;61956;52.540;13.382;2023-07-20T14:06:34;0.30;;;0.10;;
73661;SDS011;61956;52.540;13.382;2023-07-20T14:09:06;1.08;;;0.35;;
73661;SDS011;61956;52.540;13.382;2023-07-20T14:11:35;0.45;;;0.10;;
73661;SDS011;61956;52.540;13.382;2023-07-20T14:14:05;0.30;;;0.20;;
73661;SDS011;61956;52.540;13.382;2023-07-20T14:16:34;0.50;;;0.17;;
73661;SDS011;61956;52.540;13.382;2023-07-20T14:19:03;0.43;;;0.13;;
73661;SDS011;61956;52.540;13.382;2023-07-20T14:21:33;0.35;;;0.20;;
73661;SDS011;61956;52.540;13.382;2023-07-20T14:24:05;0.20;;;0.10;;
73661;SDS011;61956;52.540;13.382;2023-07-20T14:26:34;0.37;;;0.10;;
73661;SDS011;61956;52.540;13.382;2023-07-20T14:29:03;0.95;;;0.30;;
73661;SDS011;61956;52.540;13.382;2023-07-20T14:31:32;0.75;;;0.20;;
73661;SDS011;61956;52.540;13.382;2023-07-20T14:34:02;0.30;;;0.10;;
73661;SDS011;61956;52.540;13.382;2023-07-20T14:36:31;0.55;;;0.22;;
73661;SDS011;61956;52.540;13.382;2023-07-20T14:39:00;0.63;;;0.20;;
73661;SDS011;61956;52.540;13.382;2023-07-20T14:41:33;0.25;;;0.20;;
73661;SDS011;61956;52.540;13.382;2023-07-20T14:44:02;0.60;;;0.20;;
73661;SDS011;61956;52.540;13.382;2023-07-20T14:46:32;0.85;;;0.20;;
73661;SDS011;61956;52.540;13.382;2023-07-20T14:49:01;0.40;;;0.10;;
73661;SDS011;61956;52.540;13.382;2023-07-20T14:51:30;0.50;;;0.10;;
73661;SDS011;61956;52.540;13.382;2023-07-20T14:54:01;0.20;;;0.10;;
73661;SDS011;61956;52.540;13.382;2023-07-20T14:56:34;0.40;;;0.10;;
73661;SDS011;61956;52.540;13.382;2023-07-20T14:59:03;0.60;;;0.15;;
73661;SDS011;61956;52.540;13.382;2023-07-20T15:01:33;0.75;;;0.20;;